createdAt,value
2022-09-29T00:02:04.777Z,9.4
2022-09-29T00:07:11.027Z,9.4
2022-09-29T00:12:17.036Z,9.3
2022-09-29T00:17:23.385Z,9.3
2022-09-29T00:22:29.437Z,9.3
2022-09-29T00:27:35.903Z,9.2
2022-09-29T00:32:42.078Z,9.2
2022-09-29T00:37:48.309Z,9.2
2022-09-29T00:42:54.282Z,9.1
2022-09-29T00:48:00.607Z,9.0
2022-09-29T00:53:06.686Z,9.0
2022-09-29T00:58:13.044Z,9.0
2022-09-29T01:03:19.102Z,8.9
2022-09-29T01:08:25.550Z,8.9
2022-09-29T01:13:31.725Z,8.8
2022-09-29T01:18:37.724Z,8.8
2022-09-29T01:23:43.096Z,8.7
2022-09-29T01:28:49.169Z,8.6
2022-09-29T01:33:54.618Z,8.6
2022-09-29T01:39:00.609Z,8.5
2022-09-29T01:44:07.030Z,8.5
2022-09-29T01:49:13.270Z,8.4
2022-09-29T01:54:19.498Z,8.3
2022-09-29T01:59:25.447Z,8.2
2022-09-29T02:04:31.850Z,8.2
2022-09-29T02:09:37.860Z,8.1
2022-09-29T02:14:44.314Z,8.1
2022-09-29T02:19:50.271Z,8.0
2022-09-29T02:24:56.722Z,7.9
2022-09-29T02:30:02.708Z,7.9
2022-09-29T02:35:09.105Z,7.8
2022-09-29T02:40:15.101Z,7.8
2022-09-29T02:45:21.595Z,7.8
2022-09-29T02:50:27.520Z,7.8
2022-09-29T02:55:33.852Z,7.8
2022-09-29T03:00:39.988Z,7.8
2022-09-29T03:05:46.381Z,7.8
2022-09-29T03:10:52.340Z,7.7
2022-09-29T03:15:58.828Z,7.6
2022-09-29T03:21:03.802Z,7.6
2022-09-29T03:26:10.130Z,7.5
2022-09-29T03:31:15.314Z,7.5
2022-09-29T03:36:21.676Z,7.5
2022-09-29T03:41:27.645Z,7.5
2022-09-29T03:46:34.219Z,7.5
2022-09-29T03:51:40.061Z,7.4
2022-09-29T03:56:46.502Z,7.4
2022-09-29T04:01:52.556Z,7.3
2022-09-29T04:06:58.825Z,7.3
2022-09-29T04:12:04.894Z,7.2
2022-09-29T04:17:11.316Z,7.2
2022-09-29T04:22:17.305Z,7.1
2022-09-29T04:27:23.755Z,7.1
2022-09-29T04:32:29.716Z,7.1
2022-09-29T04:37:36.066Z,7.0
2022-09-29T04:42:42.141Z,0.0
2022-09-29T04:47:48.580Z,6.9
2022-09-29T04:52:54.545Z,6.9
2022-09-29T04:58:00.998Z,6.9
2022-09-29T05:03:06.961Z,6.9
2022-09-29T05:08:13.418Z,6.8
2022-09-29T05:13:19.382Z,6.8
2022-09-29T05:18:24.626Z,6.7
2022-09-29T05:23:30.831Z,6.7
2022-09-29T05:28:37.279Z,6.7
2022-09-29T05:33:43.395Z,6.7
2022-09-29T05:38:49.453Z,6.7
2022-09-29T05:43:55.900Z,6.6
2022-09-29T05:49:01.874Z,6.6
2022-09-29T05:54:08.201Z,6.6
2022-09-29T05:59:14.287Z,6.6
2022-09-29T06:04:20.503Z,6.6
2022-09-29T06:09:26.698Z,6.7
2022-09-29T06:14:33.121Z,6.7
2022-09-29T06:19:42.837Z,6.7
2022-09-29T06:24:45.553Z,6.6
2022-09-29T06:29:51.526Z,6.7
2022-09-29T06:34:58.809Z,6.7
2022-09-29T06:40:04.855Z,6.8
2022-09-29T06:45:09.405Z,6.9
2022-09-29T06:50:18.554Z,7.1
2022-09-29T06:55:21.581Z,7.4
2022-09-29T07:00:27.791Z,7.7
2022-09-29T07:05:33.229Z,8.0
2022-09-29T07:10:39.234Z,8.3
2022-09-29T07:15:44.612Z,8.6
2022-09-29T07:20:50.679Z,8.9
2022-09-29T07:25:56.124Z,9.1
2022-09-29T07:31:11.562Z,9.4
2022-09-29T07:36:08.340Z,9.7
2022-09-29T07:41:14.540Z,10.0
2022-09-29T07:46:21.034Z,10.2
2022-09-29T07:51:26.955Z,10.5
2022-09-29T07:56:33.394Z,10.7
2022-09-29T08:01:39.369Z,10.9
2022-09-29T08:06:45.804Z,11.0
2022-09-29T08:12:01.090Z,11.2
2022-09-29T08:16:58.009Z,11.3
2022-09-29T08:22:04.198Z,11.5
2022-09-29T08:27:17.594Z,11.7
2022-09-29T08:32:16.615Z,11.9
2022-09-29T08:37:23.068Z,12.1
2022-09-29T08:42:35.448Z,12.3
2022-09-29T08:47:46.117Z,12.5
2022-09-29T08:52:50.061Z,12.7
2022-09-29T08:57:47.676Z,12.9
2022-09-29T09:02:56.771Z,13.0
2022-09-29T09:08:03.376Z,13.2
2022-09-29T09:13:05.303Z,13.4
2022-09-29T09:18:11.520Z,13.6
2022-09-29T09:23:16.755Z,13.8
2022-09-29T09:28:23.206Z,14.0
2022-09-29T09:33:31.315Z,14.1
2022-09-29T09:38:35.373Z,14.3
2022-09-29T09:43:41.787Z,14.4
2022-09-29T09:48:47.791Z,14.6
2022-09-29T09:53:54.217Z,14.8
2022-09-29T09:59:00.204Z,14.9
2022-09-29T10:04:06.676Z,15.1
2022-09-29T10:09:12.798Z,15.2
2022-09-29T10:14:19.054Z,15.3
2022-09-29T10:19:25.044Z,15.5
2022-09-29T10:24:31.396Z,15.6
2022-09-29T10:29:37.483Z,15.7
2022-09-29T10:34:43.842Z,15.9
2022-09-29T10:39:49.908Z,16.0
2022-09-29T10:44:56.262Z,16.1
2022-09-29T10:50:02.376Z,16.3
2022-09-29T10:55:08.820Z,16.4
2022-09-29T11:00:14.768Z,16.5
2022-09-29T11:05:21.223Z,16.6
2022-09-29T11:10:26.226Z,16.8
2022-09-29T11:15:32.674Z,16.9
2022-09-29T11:20:37.669Z,17.1
2022-09-29T11:25:44.131Z,17.3
2022-09-29T11:30:50.139Z,17.5
2022-09-29T11:35:56.436Z,17.5
2022-09-29T11:41:02.535Z,17.5
2022-09-29T11:46:09.007Z,17.6
2022-09-29T11:51:14.918Z,17.5
2022-09-29T11:56:21.380Z,17.4
2022-09-29T12:01:27.330Z,17.4
2022-09-29T12:06:33.669Z,17.5
2022-09-29T12:11:54.869Z,17.6
2022-09-29T12:16:46.089Z,17.7
2022-09-29T12:21:52.166Z,17.8
2022-09-29T12:26:58.515Z,17.7
2022-09-29T12:32:04.581Z,17.8
2022-09-29T12:37:11.043Z,17.8
2022-09-29T12:42:16.997Z,17.9
2022-09-29T12:47:23.407Z,18.0
2022-09-29T12:52:29.438Z,18.2
2022-09-29T12:57:35.832Z,18.3
2022-09-29T13:02:41.878Z,18.4
2022-09-29T13:07:47.298Z,18.4
2022-09-29T13:12:53.273Z,18.5
2022-09-29T13:17:59.733Z,18.6
2022-09-29T13:23:05.691Z,18.7
2022-09-29T13:28:12.030Z,18.8
2022-09-29T13:33:18.114Z,18.9
2022-09-29T13:38:24.320Z,19.1
2022-09-29T13:43:30.525Z,19.2
2022-09-29T13:48:36.758Z,19.4
2022-09-29T13:53:43.161Z,19.5
2022-09-29T13:58:49.155Z,19.6
2022-09-29T14:03:55.580Z,19.5
2022-09-29T14:09:01.645Z,19.6
2022-09-29T14:14:08.018Z,19.7
2022-09-29T14:19:13.981Z,19.8
2022-09-29T14:24:20.968Z,19.8
2022-09-29T14:29:26.400Z,19.9
2022-09-29T14:34:32.861Z,19.9
2022-09-29T14:39:39.149Z,19.9
2022-09-29T14:44:45.243Z,19.7
2022-09-29T14:49:51.242Z,19.5
2022-09-29T14:54:56.690Z,19.4
2022-09-29T15:00:02.708Z,19.2
2022-09-29T15:05:09.051Z,19.0
2022-09-29T15:10:15.097Z,18.8
2022-09-29T15:15:21.437Z,18.7
2022-09-29T15:20:27.507Z,18.5
2022-09-29T15:25:33.934Z,18.3
2022-09-29T15:30:39.981Z,18.2
2022-09-29T15:35:46.347Z,18.1
2022-09-29T15:40:52.344Z,18.1
2022-09-29T15:45:58.913Z,18.1
2022-09-29T15:51:04.760Z,18.1
2022-09-29T15:56:11.213Z,18.1
2022-09-29T16:01:17.258Z,18.0
2022-09-29T16:06:23.523Z,18.0
2022-09-29T16:11:29.600Z,17.9
2022-09-29T16:16:36.021Z,17.8
2022-09-29T16:21:42.017Z,17.7
2022-09-29T16:26:48.435Z,17.6
2022-09-29T16:31:54.428Z,17.5
2022-09-29T16:37:00.785Z,17.3
2022-09-29T16:42:05.924Z,17.3
2022-09-29T16:47:12.225Z,17.1
2022-09-29T16:52:17.316Z,16.9
2022-09-29T16:57:23.737Z,16.8
2022-09-29T17:02:29.755Z,16.6
2022-09-29T17:07:36.076Z,16.4
2022-09-29T17:12:42.171Z,16.3
2022-09-29T17:17:48.628Z,16.1
2022-09-29T17:22:54.602Z,15.9
2022-09-29T17:28:01.038Z,15.8
2022-09-29T17:33:07.035Z,15.5
2022-09-29T17:38:13.249Z,15.4
2022-09-29T17:43:19.467Z,15.2
2022-09-29T17:48:25.917Z,15.0
2022-09-29T17:53:31.890Z,14.8
2022-09-29T17:58:38.090Z,14.6
2022-09-29T18:03:44.572Z,14.4
2022-09-29T18:08:53.087Z,14.2
2022-09-29T18:13:56.881Z,14.0
2022-09-29T18:19:02.934Z,13.9
2022-09-29T18:24:09.375Z,13.8
2022-09-29T18:29:15.368Z,13.7
2022-09-29T18:34:21.753Z,13.5
2022-09-29T18:39:26.795Z,13.4
2022-09-29T18:44:33.234Z,13.3
2022-09-29T18:49:38.238Z,13.1
2022-09-29T18:54:44.656Z,13.0
2022-09-29T18:59:49.685Z,12.9
2022-09-29T19:04:56.117Z,12.8
2022-09-29T19:10:02.157Z,12.8
2022-09-29T19:15:08.437Z,12.7
2022-09-29T19:20:14.512Z,12.6
2022-09-29T19:25:20.961Z,12.4
2022-09-29T19:30:26.928Z,12.4
2022-09-29T19:35:33.269Z,12.3
2022-09-29T19:40:39.345Z,12.2
2022-09-29T19:45:45.749Z,12.1
2022-09-29T19:50:51.758Z,12.0
2022-09-29T19:55:58.196Z,11.9
2022-09-29T20:01:04.179Z,11.8
2022-09-29T20:06:10.622Z,11.7
2022-09-29T20:11:16.596Z,11.6
2022-09-29T20:16:22.992Z,11.6
2022-09-29T20:21:29.010Z,11.4
2022-09-29T20:26:35.433Z,11.4
2022-09-29T20:31:41.473Z,11.3
2022-09-29T20:36:52.190Z,11.2
2022-09-29T20:41:53.842Z,11.1
2022-09-29T20:46:59.428Z,11.0
2022-09-29T20:52:05.289Z,11.0
2022-09-29T20:57:10.652Z,10.9
2022-09-29T21:02:16.867Z,10.8
2022-09-29T21:07:23.162Z,10.8
2022-09-29T21:12:29.144Z,10.7
2022-09-29T21:17:35.552Z,10.6
2022-09-29T21:22:41.556Z,10.5
2022-09-29T21:27:48.019Z,10.5
2022-09-29T21:32:53.973Z,10.4
2022-09-29T21:38:00.397Z,10.4
2022-09-29T21:43:06.393Z,10.3
2022-09-29T21:48:12.807Z,10.2
2022-09-29T21:53:18.807Z,10.2
2022-09-29T21:58:25.245Z,10.1
2022-09-29T22:03:31.258Z,10.1
2022-09-29T22:08:37.426Z,10.0
2022-09-29T22:13:43.768Z,10.0
2022-09-29T22:19:05.844Z,9.9
2022-09-29T22:23:56.057Z,9.8
2022-09-29T22:29:02.268Z,9.8
2022-09-29T22:34:08.619Z,9.8
2022-09-29T22:39:14.735Z,9.7
2022-09-29T22:49:26.124Z,9.6
2022-09-29T22:54:31.601Z,9.5
2022-09-29T22:59:37.569Z,9.5
2022-09-29T23:04:43.003Z,9.4
2022-09-29T23:09:49.047Z,9.4
2022-09-29T23:14:55.355Z,9.3
2022-09-29T23:20:01.443Z,9.3
2022-09-29T23:25:07.762Z,9.3
2022-09-29T23:30:13.837Z,9.2
2022-09-29T23:35:20.278Z,9.2
2022-09-29T23:40:26.254Z,9.2
2022-09-29T23:45:31.683Z,9.1
2022-09-29T23:50:37.684Z,9.1
2022-09-29T23:55:44.127Z,9.1
